IBE6275 LEMD-KORD
Flight info
| Callsign | IBE6275 |
|---|---|
| Flight time | N/A |
| Altitude | 36000 |
| Route | BARDI DCT ULVAX DCT OTREG DCT RETEN/M082F360 DCT 4430N02000W 47N030W 48N040W 47N050W DCT PORTI/N0470F360 N200E HULTN/N0471F380 DCT VINDI Q806 MUTIB DCT YUL DCT LETAK Q824 TAGUM DCT ECK DCT FNT WYNDE3 |
| Aircraft | A346/H-SDE2E3FGHIJ3J4J5M1RWXY/LB1D1 |
Departure
| Time | 2026-04-30 14:05 |
|---|---|
| Airport | Adolfo Suárez Madrid–Barajas Airport (LEMD) |
Arrival
| Time | N/A |
|---|---|
| Airport | Chicago O'Hare International Airport (KORD) |
| Time | Latitude | Longitude | Altitude | Speed | Heading |
|---|---|---|---|---|---|
| 2026-04-30 13:33 | 40.49922 | -3.56868 | 1983 ft | 0 kts | 157° |
| 2026-04-30 13:54 | 40.49953 | -3.56884 | 1985 ft | 4 kts | 160° |
| 2026-04-30 13:54 | 40.49970 | -3.56893 | 1984 ft | 4 kts | 160° |
| 2026-04-30 13:54 | 40.49999 | -3.56906 | 1985 ft | 4 kts | 170° |
| 2026-04-30 13:54 | 40.50015 | -3.56906 | 1985 ft | 4 kts | 210° |
| 2026-04-30 13:55 | 40.50022 | -3.56895 | 1986 ft | 4 kts | 256° |
| 2026-04-30 13:55 | 40.50024 | -3.56862 | 1986 ft | 4 kts | 270° |
| 2026-04-30 13:55 | 40.50024 | -3.56839 | 1986 ft | 4 kts | 270° |
| 2026-04-30 13:55 | 40.50024 | -3.56829 | 1986 ft | 0 kts | 270° |
| 2026-04-30 13:58 | 40.50024 | -3.56830 | 1986 ft | 0 kts | 270° |
| 2026-04-30 13:58 | 40.50024 | -3.56867 | 1986 ft | 4 kts | 268° |
| 2026-04-30 13:58 | 40.50023 | -3.56912 | 1985 ft | 6 kts | 268° |
| 2026-04-30 13:59 | 40.50022 | -3.56972 | 1987 ft | 7 kts | 268° |
| 2026-04-30 13:59 | 40.50020 | -3.57037 | 1988 ft | 8 kts | 268° |
| 2026-04-30 13:59 | 40.50007 | -3.57100 | 1986 ft | 7 kts | 230° |
| 2026-04-30 13:59 | 40.49978 | -3.57118 | 1991 ft | 3 kts | 187° |
| 2026-04-30 14:00 | 40.49955 | -3.57119 | 1991 ft | 9 kts | 181° |
| 2026-04-30 14:00 | 40.49712 | -3.57118 | 1992 ft | 21 kts | 180° |
| 2026-04-30 14:00 | 40.49562 | -3.57117 | 1991 ft | 23 kts | 180° |
| 2026-04-30 14:01 | 40.49405 | -3.57116 | 1986 ft | 18 kts | 179° |
| 2026-04-30 14:01 | 40.49303 | -3.57116 | 1987 ft | 11 kts | 180° |
| 2026-04-30 14:01 | 40.49228 | -3.57115 | 1989 ft | 11 kts | 180° |
| 2026-04-30 14:01 | 40.49184 | -3.57164 | 1993 ft | 10 kts | 262° |
| 2026-04-30 14:02 | 40.49182 | -3.57253 | 1991 ft | 10 kts | 270° |
| 2026-04-30 14:02 | 40.49181 | -3.57345 | 1992 ft | 10 kts | 270° |
| 2026-04-30 14:02 | 40.49194 | -3.57435 | 1995 ft | 10 kts | 312° |
| 2026-04-30 14:02 | 40.49269 | -3.57453 | 1993 ft | 13 kts | 1° |
| 2026-04-30 14:03 | 40.49292 | -3.57453 | 1992 ft | 0 kts | 0° |
| 2026-04-30 14:04 | 40.49305 | -3.57453 | 1991 ft | 10 kts | 0° |
| 2026-04-30 14:04 | 40.49571 | -3.57453 | 1993 ft | 66 kts | 359° |
| 2026-04-30 14:04 | 40.50213 | -3.57457 | 1999 ft | 117 kts | 360° |
| 2026-04-30 14:04 | 40.51179 | -3.57466 | 2003 ft | 160 kts | 359° |
| 2026-04-30 14:05 | 40.52453 | -3.57482 | 2054 ft | 204 kts | 359° |
| 2026-04-30 14:05 | 40.53892 | -3.57515 | 2649 ft | 207 kts | 358° |
| 2026-04-30 14:05 | 40.55322 | -3.57534 | 3309 ft | 205 kts | 358° |
| 2026-04-30 14:05 | 40.56756 | -3.57540 | 3849 ft | 210 kts | 359° |
| 2026-04-30 14:06 | 40.58258 | -3.57546 | 4150 ft | 223 kts | 0° |
| 2026-04-30 14:06 | 40.61446 | -3.56715 | 4824 ft | 247 kts | 25° |
| 2026-04-30 14:07 | 40.64657 | -3.55025 | 5970 ft | 255 kts | 9° |
| 2026-04-30 14:07 | 40.66481 | -3.54900 | 6294 ft | 271 kts | 353° |
| 2026-04-30 14:07 | 40.68383 | -3.55322 | 6715 ft | 282 kts | 349° |
| 2026-04-30 14:08 | 40.72331 | -3.55681 | 8060 ft | 286 kts | 358° |
| 2026-04-30 14:08 | 40.74337 | -3.55725 | 8714 ft | 290 kts | 355° |
| 2026-04-30 14:08 | 40.77853 | -3.57941 | 10023 ft | 287 kts | 305° |
| 2026-04-30 14:09 | 40.78760 | -3.60227 | 10551 ft | 288 kts | 282° |
| 2026-04-30 14:09 | 40.78886 | -3.62904 | 10853 ft | 301 kts | 259° |
| 2026-04-30 14:09 | 40.77881 | -3.68551 | 11447 ft | 331 kts | 256° |
| 2026-04-30 14:10 | 40.77333 | -3.71587 | 11730 ft | 347 kts | 256° |
| 2026-04-30 14:10 | 40.76767 | -3.74762 | 12001 ft | 363 kts | 256° |
| 2026-04-30 14:10 | 40.76183 | -3.78066 | 12414 ft | 374 kts | 256° |
| 2026-04-30 14:10 | 40.75590 | -3.81432 | 13072 ft | 377 kts | 256° |
| 2026-04-30 14:11 | 40.74996 | -3.84819 | 13791 ft | 380 kts | 256° |
| 2026-04-30 14:11 | 40.74398 | -3.88226 | 14417 ft | 382 kts | 256° |
| 2026-04-30 14:11 | 40.73795 | -3.91668 | 14993 ft | 386 kts | 256° |
| 2026-04-30 14:11 | 40.73188 | -3.95137 | 15571 ft | 389 kts | 256° |
| 2026-04-30 14:12 | 40.72571 | -3.98638 | 16145 ft | 393 kts | 256° |
| 2026-04-30 14:12 | 40.71949 | -4.02161 | 16715 ft | 397 kts | 256° |
| 2026-04-30 14:12 | 40.71318 | -4.05722 | 17269 ft | 400 kts | 256° |
| 2026-04-30 14:12 | 40.70681 | -4.09312 | 17847 ft | 403 kts | 256° |
| 2026-04-30 14:13 | 40.70036 | -4.12933 | 18406 ft | 406 kts | 256° |
| 2026-04-30 14:13 | 40.69394 | -4.16536 | 18859 ft | 410 kts | 256° |
| 2026-04-30 14:13 | 40.68737 | -4.20206 | 19365 ft | 412 kts | 256° |
| 2026-04-30 14:13 | 40.68076 | -4.23897 | 19874 ft | 415 kts | 256° |
| 2026-04-30 14:14 | 40.67410 | -4.27609 | 20369 ft | 417 kts | 256° |
| 2026-04-30 14:14 | 40.66738 | -4.31348 | 20860 ft | 420 kts | 256° |
| 2026-04-30 14:14 | 40.66061 | -4.35111 | 21360 ft | 422 kts | 256° |
| 2026-04-30 14:14 | 40.65379 | -4.38891 | 21853 ft | 425 kts | 256° |
| 2026-04-30 14:15 | 40.64689 | -4.42701 | 22341 ft | 427 kts | 256° |
| 2026-04-30 14:15 | 40.63996 | -4.46527 | 22821 ft | 430 kts | 256° |
| 2026-04-30 14:15 | 40.63269 | -4.50360 | 23307 ft | 432 kts | 253° |
| 2026-04-30 14:15 | 40.62229 | -4.54091 | 23765 ft | 434 kts | 245° |
| 2026-04-30 14:16 | 40.60826 | -4.57627 | 24150 ft | 436 kts | 238° |
| 2026-04-30 14:16 | 40.59106 | -4.60929 | 24539 ft | 438 kts | 233° |
| 2026-04-30 14:16 | 40.57282 | -4.64162 | 24936 ft | 440 kts | 233° |
| 2026-04-30 14:16 | 40.55459 | -4.67350 | 25322 ft | 442 kts | 233° |
| 2026-04-30 14:17 | 40.53604 | -4.70592 | 25713 ft | 444 kts | 233° |
| 2026-04-30 14:17 | 40.51741 | -4.73854 | 26095 ft | 446 kts | 233° |
| 2026-04-30 14:17 | 40.49875 | -4.77123 | 26481 ft | 448 kts | 233° |
| 2026-04-30 14:17 | 40.47999 | -4.80412 | 26855 ft | 450 kts | 233° |
| 2026-04-30 14:18 | 40.46182 | -4.83773 | 27189 ft | 453 kts | 239° |
| 2026-04-30 14:18 | 40.44946 | -4.87591 | 27495 ft | 457 kts | 253° |
| 2026-04-30 14:18 | 40.44699 | -4.95943 | 28293 ft | 463 kts | 276° |
| 2026-04-30 14:19 | 40.45608 | -5.04308 | 29324 ft | 461 kts | 276° |
| 2026-04-30 14:19 | 40.46062 | -5.08478 | 29792 ft | 460 kts | 275° |
| 2026-04-30 14:19 | 40.46510 | -5.12641 | 30250 ft | 459 kts | 275° |
| 2026-04-30 14:20 | 40.46952 | -5.16794 | 30649 ft | 458 kts | 275° |
| 2026-04-30 14:20 | 40.47390 | -5.20940 | 31056 ft | 457 kts | 275° |
| 2026-04-30 14:20 | 40.48260 | -5.29207 | 31822 ft | 456 kts | 275° |
| 2026-04-30 14:21 | 40.48686 | -5.33294 | 32194 ft | 456 kts | 275° |
| 2026-04-30 14:21 | 40.49117 | -5.37428 | 32538 ft | 456 kts | 275° |
| 2026-04-30 14:21 | 40.49971 | -5.45697 | 33191 ft | 456 kts | 275° |
| 2026-04-30 14:22 | 40.50396 | -5.49828 | 33539 ft | 455 kts | 275° |
| 2026-04-30 14:22 | 40.51240 | -5.58083 | 34201 ft | 454 kts | 275° |
| 2026-04-30 14:22 | 40.51659 | -5.62207 | 34475 ft | 454 kts | 275° |
| 2026-04-30 14:23 | 40.52494 | -5.70461 | 34952 ft | 455 kts | 274° |
| 2026-04-30 14:23 | 40.53328 | -5.78753 | 35380 ft | 457 kts | 274° |
| 2026-04-30 14:24 | 40.54155 | -5.87062 | 35810 ft | 458 kts | 274° |
| 2026-04-30 14:24 | 40.54568 | -5.91230 | 36011 ft | 459 kts | 274° |
| 2026-04-30 14:25 | 40.56203 | -6.07885 | 36092 ft | 460 kts | 274° |
| 2026-04-30 14:26 | 40.57419 | -6.20445 | 36092 ft | 460 kts | 274° |
| 2026-04-30 14:27 | 40.58662 | -6.33006 | 36088 ft | 461 kts | 276° |
| 2026-04-30 14:27 | 40.60022 | -6.41299 | 36088 ft | 464 kts | 282° |
| 2026-04-30 14:28 | 40.63292 | -6.53325 | 36093 ft | 469 kts | 290° |
| 2026-04-30 14:28 | 40.66264 | -6.61019 | 36087 ft | 471 kts | 294° |
| 2026-04-30 14:29 | 40.71050 | -6.75448 | 36092 ft | 467 kts | 287° |
| 2026-04-30 14:31 | 40.76997 | -6.96937 | 36086 ft | 467 kts | 286° |
| 2026-04-30 14:31 | 40.80309 | -7.08987 | 36086 ft | 467 kts | 286° |
| 2026-04-30 14:32 | 40.83624 | -7.21100 | 36087 ft | 467 kts | 286° |
| 2026-04-30 14:33 | 40.85829 | -7.29185 | 36086 ft | 467 kts | 285° |
| 2026-04-30 14:33 | 40.89125 | -7.41328 | 36085 ft | 467 kts | 285° |
| 2026-04-30 14:34 | 40.91313 | -7.49421 | 36089 ft | 466 kts | 285° |
| 2026-04-30 14:34 | 40.93490 | -7.57502 | 36088 ft | 466 kts | 285° |
| 2026-04-30 14:35 | 40.96735 | -7.69591 | 36092 ft | 466 kts | 285° |
| 2026-04-30 14:36 | 40.98901 | -7.77703 | 36093 ft | 466 kts | 285° |
| 2026-04-30 14:36 | 41.01172 | -7.85771 | 36089 ft | 469 kts | 288° |
| 2026-04-30 14:37 | 41.03709 | -7.93738 | 36094 ft | 469 kts | 289° |
| 2026-04-30 14:37 | 41.06257 | -8.01709 | 36098 ft | 468 kts | 289° |
| 2026-04-30 14:38 | 41.08787 | -8.09662 | 36103 ft | 467 kts | 288° |
| 2026-04-30 14:38 | 41.11304 | -8.17615 | 36100 ft | 467 kts | 288° |
| 2026-04-30 14:39 | 41.13812 | -8.25565 | 36108 ft | 467 kts | 288° |
| 2026-04-30 14:39 | 41.16314 | -8.33517 | 36103 ft | 466 kts | 288° |
| 2026-04-30 14:40 | 41.20063 | -8.45478 | 36114 ft | 468 kts | 288° |
| 2026-04-30 14:40 | 41.22558 | -8.53470 | 36113 ft | 468 kts | 288° |
| 2026-04-30 14:41 | 41.25028 | -8.61405 | 36120 ft | 467 kts | 288° |
| 2026-04-30 14:41 | 41.27658 | -8.69317 | 36128 ft | 469 kts | 292° |
| 2026-04-30 14:42 | 41.30815 | -8.76963 | 36142 ft | 472 kts | 295° |
| 2026-04-30 14:42 | 41.34083 | -8.84559 | 36132 ft | 472 kts | 295° |
| 2026-04-30 14:43 | 41.37345 | -8.92163 | 36125 ft | 472 kts | 295° |
| 2026-04-30 14:43 | 41.40595 | -8.99771 | 36118 ft | 472 kts | 295° |
| 2026-04-30 14:44 | 41.43842 | -9.07395 | 36112 ft | 471 kts | 295° |
| 2026-04-30 14:44 | 41.47081 | -9.15026 | 36109 ft | 472 kts | 295° |
| 2026-04-30 14:45 | 41.50315 | -9.22667 | 36102 ft | 473 kts | 295° |
| 2026-04-30 14:45 | 41.53548 | -9.30320 | 36096 ft | 473 kts | 295° |
| 2026-04-30 14:46 | 41.56231 | -9.36689 | 36104 ft | 473 kts | 295° |
| 2026-04-30 14:46 | 41.59454 | -9.44357 | 36097 ft | 473 kts | 295° |
| 2026-04-30 14:47 | 41.62675 | -9.52037 | 36106 ft | 473 kts | 294° |
| 2026-04-30 14:47 | 41.65886 | -9.59716 | 36098 ft | 473 kts | 294° |
| 2026-04-30 14:48 | 41.69096 | -9.67412 | 36095 ft | 473 kts | 294° |
| 2026-04-30 14:48 | 41.72284 | -9.75078 | 36087 ft | 473 kts | 294° |
| 2026-04-30 14:49 | 41.75483 | -9.82787 | 36090 ft | 473 kts | 294° |
| 2026-04-30 14:49 | 41.78681 | -9.90513 | 36094 ft | 473 kts | 294° |
| 2026-04-30 14:50 | 41.83461 | -10.02101 | 36082 ft | 473 kts | 294° |
| 2026-04-30 14:51 | 41.88228 | -10.13705 | 36075 ft | 473 kts | 294° |
| 2026-04-30 14:52 | 41.92970 | -10.25291 | 36074 ft | 474 kts | 294° |
| 2026-04-30 14:52 | 41.97727 | -10.36959 | 36078 ft | 473 kts | 294° |
| 2026-04-30 14:53 | 42.02457 | -10.48609 | 36076 ft | 473 kts | 294° |
| 2026-04-30 14:54 | 42.08751 | -10.64183 | 36082 ft | 473 kts | 294° |
| 2026-04-30 14:55 | 42.13461 | -10.75894 | 36081 ft | 473 kts | 294° |
| 2026-04-30 14:56 | 42.19689 | -10.91446 | 36073 ft | 472 kts | 293° |
| 2026-04-30 14:57 | 42.24365 | -11.03184 | 36072 ft | 474 kts | 293° |
| 2026-04-30 14:58 | 42.30598 | -11.18897 | 36071 ft | 474 kts | 293° |
| 2026-04-30 14:58 | 42.35257 | -11.30699 | 36074 ft | 474 kts | 293° |
| 2026-04-30 15:00 | 42.43007 | -11.50439 | 36073 ft | 475 kts | 293° |
| 2026-04-30 15:01 | 42.49177 | -11.66251 | 36077 ft | 473 kts | 293° |
| 2026-04-30 15:01 | 42.53767 | -11.78073 | 36071 ft | 473 kts | 293° |
| 2026-04-30 15:02 | 42.56831 | -11.85991 | 36071 ft | 473 kts | 293° |
| 2026-04-30 15:03 | 42.64459 | -12.05799 | 36089 ft | 472 kts | 293° |
| 2026-04-30 15:04 | 42.72053 | -12.25656 | 36075 ft | 473 kts | 292° |
| 2026-04-30 15:06 | 42.79598 | -12.45523 | 36084 ft | 473 kts | 292° |
| 2026-04-30 15:07 | 42.85629 | -12.61505 | 36078 ft | 474 kts | 292° |
| 2026-04-30 15:08 | 42.91640 | -12.77528 | 36099 ft | 474 kts | 292° |
| 2026-04-30 15:09 | 42.99062 | -12.97565 | 36076 ft | 472 kts | 290° |
| 2026-04-30 15:10 | 43.03607 | -13.14314 | 36093 ft | 468 kts | 284° |
| 2026-04-30 15:11 | 43.09890 | -13.39719 | 36074 ft | 469 kts | 284° |
| 2026-04-30 15:13 | 43.15088 | -13.60913 | 36072 ft | 470 kts | 284° |
| 2026-04-30 15:14 | 43.22297 | -13.90621 | 36076 ft | 469 kts | 284° |
| 2026-04-30 15:17 | 43.31454 | -14.28932 | 36072 ft | 470 kts | 284° |
| 2026-04-30 15:19 | 43.39477 | -14.63039 | 36077 ft | 468 kts | 284° |
| 2026-04-30 17:39 | 47.98051 | -40.34733 | 36366 ft | 485 kts | 263° |
| 2026-04-30 17:42 | 47.95010 | -40.85001 | 36368 ft | 486 kts | 263° |
| 2026-04-30 17:43 | 47.93421 | -41.10083 | 36368 ft | 486 kts | 263° |
| 2026-04-30 17:44 | 47.91418 | -41.40332 | 36374 ft | 488 kts | 263° |
| 2026-04-30 17:47 | 47.88265 | -41.85710 | 36374 ft | 489 kts | 262° |
| 2026-04-30 17:48 | 47.85690 | -42.20961 | 36374 ft | 489 kts | 262° |
| 2026-04-30 17:50 | 47.82611 | -42.61245 | 36387 ft | 489 kts | 262° |
| 2026-04-30 17:52 | 47.80203 | -42.91498 | 36377 ft | 491 kts | 262° |
| 2026-04-30 17:54 | 47.76431 | -43.36975 | 36368 ft | 493 kts | 261° |
| 2026-04-30 17:56 | 47.72913 | -43.77497 | 36380 ft | 494 kts | 261° |
| 2026-04-30 17:58 | 47.70181 | -44.07855 | 36383 ft | 494 kts | 261° |
| 2026-04-30 18:00 | 47.66411 | -44.48295 | 36386 ft | 493 kts | 261° |
| 2026-04-30 18:01 | 47.63987 | -44.73472 | 36390 ft | 493 kts | 261° |
| 2026-04-30 18:02 | 47.61181 | -45.01938 | 36390 ft | 491 kts | 261° |
| 2026-04-30 18:04 | 47.58140 | -45.31988 | 36391 ft | 490 kts | 261° |
| 2026-04-30 18:06 | 47.53971 | -45.71876 | 36390 ft | 489 kts | 261° |
| 2026-04-30 18:08 | 47.50221 | -46.06699 | 36389 ft | 489 kts | 261° |
| 2026-04-30 18:10 | 47.45806 | -46.46360 | 36388 ft | 488 kts | 261° |
| 2026-04-30 18:11 | 47.41842 | -46.80956 | 36392 ft | 486 kts | 261° |
| 2026-04-30 18:13 | 47.38957 | -47.05553 | 36380 ft | 486 kts | 261° |
| 2026-04-30 18:14 | 47.36014 | -47.30143 | 36389 ft | 486 kts | 261° |
| 2026-04-30 18:15 | 47.32419 | -47.59567 | 36377 ft | 485 kts | 261° |
| 2026-04-30 18:16 | 47.29989 | -47.79116 | 36356 ft | 484 kts | 261° |
| 2026-04-30 18:17 | 47.28763 | -47.88868 | 36375 ft | 483 kts | 261° |
| 2026-04-30 18:18 | 47.26911 | -48.03465 | 36373 ft | 483 kts | 261° |
| 2026-04-30 18:18 | 47.25675 | -48.13115 | 36372 ft | 481 kts | 261° |
| 2026-04-30 18:19 | 47.24423 | -48.22823 | 36375 ft | 481 kts | 261° |
| 2026-04-30 18:19 | 47.23164 | -48.32520 | 36372 ft | 481 kts | 261° |
| 2026-04-30 18:20 | 47.21897 | -48.42213 | 36371 ft | 481 kts | 261° |
| 2026-04-30 18:20 | 47.20623 | -48.51891 | 36359 ft | 481 kts | 260° |
| 2026-04-30 18:21 | 47.19346 | -48.61544 | 36369 ft | 480 kts | 260° |
| 2026-04-30 18:21 | 47.18056 | -48.71195 | 36372 ft | 480 kts | 260° |
| 2026-04-30 18:22 | 47.16766 | -48.80787 | 36372 ft | 480 kts | 260° |
| 2026-04-30 18:22 | 47.14808 | -48.95243 | 36373 ft | 480 kts | 260° |
| 2026-04-30 18:23 | 47.13496 | -49.04841 | 36371 ft | 479 kts | 260° |
| 2026-04-30 18:23 | 47.12174 | -49.14452 | 36371 ft | 479 kts | 260° |
| 2026-04-30 18:24 | 47.10177 | -49.28857 | 36370 ft | 479 kts | 259° |
| 2026-04-30 18:25 | 47.08845 | -49.38382 | 36371 ft | 479 kts | 259° |
| 2026-04-30 18:25 | 47.06809 | -49.52819 | 36367 ft | 478 kts | 259° |
| 2026-04-30 18:26 | 47.04780 | -49.67077 | 36365 ft | 477 kts | 259° |
| 2026-04-30 18:27 | 47.02721 | -49.81398 | 36365 ft | 477 kts | 259° |
| 2026-04-30 18:28 | 47.00641 | -49.95689 | 36349 ft | 477 kts | 258° |
| 2026-04-30 18:28 | 46.97732 | -50.09627 | 36359 ft | 477 kts | 251° |
| 2026-04-30 18:29 | 46.93314 | -50.27907 | 36359 ft | 477 kts | 251° |
| 2026-04-30 18:30 | 46.88867 | -50.46194 | 36356 ft | 475 kts | 251° |
| 2026-04-30 18:31 | 46.85518 | -50.59873 | 36353 ft | 475 kts | 251° |
| 2026-04-30 18:32 | 46.82159 | -50.73517 | 36351 ft | 475 kts | 251° |
| 2026-04-30 18:33 | 46.78786 | -50.87137 | 36340 ft | 474 kts | 251° |
| 2026-04-30 18:33 | 46.75413 | -51.00663 | 36341 ft | 474 kts | 251° |
| 2026-04-30 18:34 | 46.72010 | -51.14224 | 36343 ft | 474 kts | 251° |
| 2026-04-30 18:35 | 46.69737 | -51.23246 | 36341 ft | 473 kts | 250° |
| 2026-04-30 18:35 | 46.67462 | -51.32239 | 36342 ft | 472 kts | 250° |
| 2026-04-30 18:36 | 46.64029 | -51.45726 | 36343 ft | 473 kts | 250° |
| 2026-04-30 18:37 | 46.60587 | -51.59184 | 36337 ft | 472 kts | 250° |
| 2026-04-30 18:37 | 46.58294 | -51.68100 | 36340 ft | 472 kts | 250° |
| 2026-04-30 18:38 | 46.55988 | -51.77036 | 36337 ft | 471 kts | 249° |
| 2026-04-30 18:38 | 46.53667 | -51.85971 | 36333 ft | 471 kts | 250° |
| 2026-04-30 18:39 | 46.51786 | -51.95089 | 36329 ft | 470 kts | 257° |
| 2026-04-30 18:39 | 46.50738 | -52.04389 | 36332 ft | 468 kts | 264° |
| 2026-04-30 18:40 | 46.50523 | -52.13841 | 36331 ft | 468 kts | 272° |
| 2026-04-30 18:40 | 46.50864 | -52.23287 | 36332 ft | 468 kts | 273° |
| 2026-04-30 18:41 | 46.51236 | -52.32733 | 36331 ft | 468 kts | 273° |
| 2026-04-30 18:41 | 46.51594 | -52.42175 | 36337 ft | 467 kts | 273° |
| 2026-04-30 18:42 | 46.51936 | -52.51623 | 36336 ft | 467 kts | 272° |
| 2026-04-30 18:42 | 46.52435 | -52.65774 | 36340 ft | 466 kts | 272° |
| 2026-04-30 18:45 | 46.54109 | -53.17460 | 36335 ft | 465 kts | 272° |
| 2026-04-30 18:46 | 46.54389 | -53.26859 | 36333 ft | 465 kts | 272° |
| 2026-04-30 18:46 | 46.54656 | -53.36248 | 36335 ft | 464 kts | 272° |
| 2026-04-30 18:47 | 46.54917 | -53.45602 | 36329 ft | 461 kts | 272° |
| 2026-04-30 18:47 | 46.55171 | -53.54929 | 36328 ft | 462 kts | 272° |
| 2026-04-30 18:48 | 46.55417 | -53.64278 | 36320 ft | 461 kts | 272° |
| 2026-04-30 18:48 | 46.55615 | -53.72022 | 36321 ft | 461 kts | 272° |